European Causeway — C6RG7 — position and weather

sailwx.info

Track history (hours):
 
Tides and Currents Weather Stations Pressure Air Temp Water Temp Dewpoint Dewpoint Depression Visibility Wind Speed Wind Dir Waves Ship Positions

European Causeway

Operator: P & O Irish Sea

Last reported at 2017-May-24 00:30 UTC. Time now 2017-May-24 00:29 UTC.
Position N 54°54' W 005°40'.

Length 165 m; draft 5.5 m.

Type: Ship (hazmat cat A). MMSI: 311027000.

Date/timePositionNaut miles runAvg speedWind from/ knotsBaromVisibWave heightAir tempDewpointWater temp
2017-May-24 00:30N 54°54' W 005°40'917.8
2017-May-24 00:00N 54°58' W 005°26'917.2
2017-May-23 23:30N 55°01' W 005°12'713.5
2017-May-23 23:00N 54°58' W 005°02'1 1.3
2017-May-23 22:29N 54°58' W 005°01'0 0.0
2017-May-23 22:00N 54°58' W 005°01'0 0.0
2017-May-23 21:30N 54°58' W 005°01'0 0.1
2017-May-23 21:00N 54°58' W 005°01'611.2
2017-May-23 20:30N 55°02' W 005°08'917.6
2017-May-23 20:00N 54°58' W 005°22'918.5
2017-May-23 19:30N 54°54' W 005°37'714.2
2017-May-23 19:00N 54°51' W 005°48'0 0.1
2017-May-23 18:30N 54°51' W 005°48'0 0.0
2017-May-23 18:00N 54°51' W 005°48'0 0.2
2017-May-23 17:30N 54°51' W 005°48'714.5
2017-May-23 17:00N 54°55' W 005°37'917.7
2017-May-23 16:31N 54°58' W 005°23'918.0
2017-May-23 16:00N 55°01' W 005°08'611.2
2017-May-23 15:30N 54°58' W 005°01'0 0.0
2017-May-23 15:00N 54°58' W 005°01'0 0.1
2017-May-23 14:30N 54°58' W 005°01'1212.5
2017-May-23 13:30N 54°57' W 005°23'1019.3
2017-May-23 13:00N 54°53' W 005°38'612.5
2017-May-23 12:31N 54°51' W 005°48'0 0.0
2017-May-23 11:58N 54°51' W 005°48'0 0.0
2017-May-23 11:30N 54°51' W 005°48'713.1
2017-May-23 11:00N 54°54' W 005°38'918.3
2017-May-23 10:30N 54°58' W 005°24'917.3
2017-May-23 10:00N 55°01' W 005°10'612.5
2017-May-23 09:30N 54°58' W 005°01'0 0.0
2017-May-23 09:00N 54°58' W 005°01'0 0.0
2017-May-23 08:30N 54°58' W 005°01'5 9.8
2017-May-23 07:59N 55°02' W 005°07'817.3
2017-May-23 07:31N 54°58' W 005°20'917.9
2017-May-23 07:01N 54°55' W 005°35'816.5
2017-May-23 06:31N 54°52' W 005°48'1 1.4
2017-May-23 05:59N 54°51' W 005°48'0 0.0
2017-May-23 05:29N 54°51' W 005°48'0 0.0
2017-May-23 05:00N 54°51' W 005°48'510.2
2017-May-23 04:30N 54°53' W 005°40'1020.3
2017-May-23 04:00N 54°58' W 005°25'1020.6
2017-May-23 03:30N 55°02' W 005°08'611.2
2017-May-23 03:00N 54°58' W 005°01'0 0.0
2017-May-23 02:30N 54°58' W 005°01'0 0.0
2017-May-23 02:00N 54°58' W 005°01'0 0.0
2017-May-23 01:30N 54°58' W 005°01'0 0.2
2017-May-23 01:00N 54°58' W 005°01'612.0
2017-May-23 00:30N 55°02' W 005°09'1019.0
2017-May-23 00:00N 54°58' W 005°24'918.8
2017-May-22 23:30N 54°54' W 005°39'612.4
2017-May-22 23:01N 54°51' W 005°48'0 0.0
2017-May-22 22:30N 54°51' W 005°48'0 0.0
2017-May-22 22:00N 54°51' W 005°48'0 0.0
2017-May-22 21:31N 54°51' W 005°48'0 0.0
2017-May-22 21:01N 54°51' W 005°48'4 7.8
2017-May-22 20:30N 54°53' W 005°42'816.5
2017-May-22 20:00N 54°57' W 005°29'816.2
2017-May-22 19:30N 55°00' W 005°16'814.0
2017-May-22 18:58N 54°59' W 005°03'2 3.7
2017-May-22 18:23N 54°58' W 005°01'0 0.0
2017-May-22 17:56N 54°58' W 005°01'0 0.1
2017-May-22 17:31N 54°58' W 005°01'510.0
2017-May-22 17:00N 55°02' W 005°07'917.5
2017-May-22 16:30N 54°58' W 005°21'918.2
2017-May-22 16:01N 54°55' W 005°35'816.2
2017-May-22 15:31N 54°51' W 005°48'0 0.2
2017-May-22 15:00N 54°51' W 005°48'6 6.0
2017-May-22 14:00N 54°54' W 005°39'917.8
2017-May-22 13:30N 54°58' W 005°25'917.9
2017-May-22 13:00N 55°02' W 005°11'713.7
2017-May-22 12:30N 54°58' W 005°01'0 0.0
2017-May-22 11:55N 54°58' W 005°01'0 0.2
2017-May-22 11:30N 54°58' W 005°01'611.3
2017-May-22 11:00N 55°02' W 005°08'918.3
2017-May-22 10:30N 54°58' W 005°23'917.1
2017-May-22 10:00N 54°54' W 005°37'714.8
2017-May-22 09:30N 54°51' W 005°48'0 0.2
2017-May-22 09:00N 54°51' W 005°48'0 0.0
2017-May-22 08:30N 54°51' W 005°48'5 9.3
2017-May-22 08:00N 54°54' W 005°41'918.1
2017-May-22 07:30N 54°57' W 005°27'917.9
2017-May-22 07:00N 55°01' W 005°13'713.6
2017-May-22 06:30N 54°58' W 005°02'1 1.4
2017-May-22 06:01N 54°58' W 005°01'0 0.0
2017-May-22 05:31N 54°58' W 005°01'0 0.0
2017-May-22 05:00N 54°58' W 005°01'5 9.6
2017-May-22 04:30N 55°02' W 005°06'918.2
2017-May-22 04:01N 54°58' W 005°20'1020.1
2017-May-22 03:30N 54°54' W 005°37'714.7
2017-May-22 03:00N 54°51' W 005°48'0 0.0
2017-May-22 02:30N 54°51' W 005°48'0 0.0
2017-May-22 02:00N 54°51' W 005°48'0 0.0
2017-May-22 01:30N 54°51' W 005°48'0 0.0
2017-May-22 01:00N 54°51' W 005°48'0 0.0
2017-May-22 00:30N 54°51' W 005°48'0 0.0
2017-May-22 00:00N 54°51' W 005°48'612.4
2017-May-21 23:31N 54°54' W 005°39'1019.8
2017-May-21 23:01N 54°58' W 005°23'817.0
2017-May-21 22:31N 55°02' W 005°10'612.7
2017-May-21 22:00N 54°58' W 005°01'0 0.0
2017-May-21 21:30N 54°58' W 005°01'0 0.0
2017-May-21 21:00N 54°58' W 005°01'5 9.3
2017-May-21 20:29N 55°02' W 005°06'919.7
2017-May-21 20:00N 54°58' W 005°21'1019.4
2017-May-21 19:30N 54°54' W 005°37'714.4
2017-May-21 19:00N 54°51' W 005°48'0 0.0
2017-May-21 18:30N 54°51' W 005°48'0 0.0
2017-May-21 18:00N 54°51' W 005°48'0 0.0
2017-May-21 17:31N 54°51' W 005°48'1515.3
2017-May-21 16:33N 54°58' W 005°26'117.8
2017-May-21 16:29N 54°59' W 005°24'16 3.6
2017-May-21 12:07N 54°51' W 005°48'0 0.1
2017-May-21 11:09N 54°51' W 005°48'0 0.0
2017-May-21 10:59N 54°51' W 005°48'0 0.0
2017-May-21 10:29N 54°51' W 005°48'0 0.0
2017-May-21 09:59N 54°51' W 005°48'0 0.0
2017-May-21 09:25N 54°51' W 005°48'0 0.0
2017-May-21 08:57N 54°51' W 005°48'0 0.1
2017-May-21 08:26N 54°51' W 005°48'21 1.8
2017-May-20 20:23N 54°60' W 005°14'2117.1
2017-May-20 19:08N 54°51' W 005°48'0 0.9
2017-May-20 19:00N 54°51' W 005°48'0 0.0
2017-May-20 18:30N 54°51' W 005°48'0 0.0
2017-May-20 18:00N 54°51' W 005°48'0 0.0
2017-May-20 17:29N 54°51' W 005°48'8 9.6
2017-May-20 16:40N 54°55' W 005°36'1220.3
2017-May-20 16:03N 55°00' W 005°17'9 8.9
2017-May-20 15:00N 54°58' W 005°01'0 0.0
2017-May-20 14:30N 54°58' W 005°01'1212.1
2017-May-20 13:31N 54°57' W 005°22'1019.3
2017-May-20 13:01N 54°53' W 005°37'713.3
2017-May-20 12:30N 54°51' W 005°48'0 0.0
2017-May-20 12:00N 54°51' W 005°48'0 0.0
2017-May-20 11:30N 54°51' W 005°48'715.0
2017-May-20 11:01N 54°55' W 005°37'1020.3
2017-May-20 10:31N 54°59' W 005°21'1016.2
2017-May-20 09:54N 54°60' W 005°04'2 6.0
2017-May-20 09:30N 54°58' W 005°01'0 0.0
2017-May-20 08:58N 54°58' W 005°01'0 0.0
2017-May-20 08:30N 54°58' W 005°01'5 9.9
2017-May-20 08:00N 55°02' W 005°07'917.8
2017-May-20 07:30N 54°59' W 005°21'917.6
2017-May-20 07:00N 54°55' W 005°35'816.4
2017-May-20 06:30N 54°51' W 005°48'0 0.7
2017-May-20 06:00N 54°51' W 005°48'0 0.0
2017-May-20 05:30N 54°51' W 005°48'0 0.0
2017-May-20 05:00N 54°51' W 005°48'713.7
2017-May-20 04:30N 54°54' W 005°37'1020.6
2017-May-20 04:00N 54°59' W 005°21'1116.1
2017-May-20 03:21N 54°59' W 005°03'2 5.6
2017-May-20 03:00N 54°58' W 005°01'0 0.0
2017-May-20 02:30N 54°58' W 005°01'0 0.0
2017-May-20 02:00N 54°58' W 005°01'5 8.6
2017-May-20 01:23N 55°02' W 005°05'411.2
2017-May-20 01:01N 55°05' W 005°12'3 5.7
2017-May-20 00:30N 55°02' W 005°14'714.0
2017-May-20 00:00N 54°58' W 005°24'917.7
2017-May-19 23:30N 54°54' W 005°38'713.1
2017-May-19 23:00N 54°51' W 005°48'0 0.1
2017-May-19 22:30N 54°51' W 005°48'0 0.0
2017-May-19 22:00N 54°51' W 005°48'0 0.0
2017-May-19 21:30N 54°51' W 005°48'0 0.0
2017-May-19 21:00N 54°51' W 005°48'4 8.7
2017-May-19 20:31N 54°53' W 005°42'918.4
2017-May-19 20:00N 54°57' W 005°27'918.1
2017-May-19 19:31N 55°01' W 005°13'714.4
2017-May-19 19:00N 54°58' W 005°02'0 0.9
2017-May-19 18:29N 54°58' W 005°01'0 0.0
2017-May-19 17:59N 54°58' W 005°01'0 0.0
2017-May-19 17:30N 54°58' W 005°01'510.3
2017-May-19 17:00N 55°02' W 005°07'1020.1
2017-May-19 16:31N 54°57' W 005°22'1020.1
2017-May-19 16:00N 54°53' W 005°39'611.6
2017-May-19 15:30N 54°51' W 005°48'0 0.0
2017-May-19 14:57N 54°51' W 005°48'6 6.3
2017-May-19 14:00N 54°54' W 005°39'1020.2
2017-May-19 13:30N 54°58' W 005°23'1019.5
2017-May-19 13:00N 55°01' W 005°07'510.1
2017-May-19 12:30N 54°58' W 005°01'0 0.0
2017-May-19 12:00N 54°58' W 005°01'0 0.0
2017-May-19 11:30N 54°58' W 005°01'5 9.5
2017-May-19 11:00N 55°01' W 005°06'1019.9
2017-May-19 10:31N 54°57' W 005°22'1020.1
2017-May-19 10:01N 54°55' W 005°38'713.2
2017-May-19 09:30N 54°51' W 005°48'0 0.0
2017-May-19 08:59N 54°51' W 005°48'0 0.0
2017-May-19 08:30N 54°51' W 005°48'612.4
2017-May-19 08:01N 54°54' W 005°39'918.8
2017-May-19 07:31N 54°58' W 005°24'917.5
2017-May-19 07:01N 55°02' W 005°10'712.8
2017-May-19 06:30N 54°58' W 005°01'0 0.0
2017-May-19 06:00N 54°58' W 005°01'0 0.0
2017-May-19 05:30N 54°58' W 005°01'0 0.0
2017-May-19 05:00N 54°58' W 005°01'611.5
2017-May-19 04:31N 55°02' W 005°08'917.3
2017-May-19 04:00N 54°58' W 005°22'918.0
2017-May-19 03:30N 54°54' W 005°36'715.0
2017-May-19 03:00N 54°51' W 005°48'0 0.1
2017-May-19 02:30N 54°51' W 005°48'0 0.0
2017-May-19 02:00N 54°51' W 005°48'0 0.0
2017-May-19 01:30N 54°51' W 005°48'0 0.0
2017-May-19 01:00N 54°51' W 005°48'510.7
2017-May-19 00:31N 54°54' W 005°40'1019.9
2017-May-19 00:01N 54°58' W 005°25'1019.5
2017-May-18 23:31N 55°02' W 005°09'612.0
2017-May-18 23:00N 54°58' W 005°01'0 0.0
2017-May-18 22:30N 54°58' W 005°01'0 0.0
2017-May-18 22:00N 54°58' W 005°01'0 0.0
2017-May-18 21:30N 54°58' W 005°01'0 0.1
2017-May-18 21:00N 54°58' W 005°01'611.1
2017-May-18 20:30N 55°02' W 005°08'918.4
2017-May-18 20:00N 54°57' W 005°22'917.6
2017-May-18 19:30N 54°54' W 005°36'714.4
2017-May-18 19:00N 54°51' W 005°48'0 0.2
2017-May-18 18:30N 54°51' W 005°48'0 0.0
2017-May-18 18:00N 54°51' W 005°48'0 0.0
2017-May-18 17:30N 54°51' W 005°48'713.1
2017-May-18 17:01N 54°54' W 005°38'1020.0
2017-May-18 16:30N 54°59' W 005°23'1019.3
2017-May-18 16:00N 55°02' W 005°06'510.0
2017-May-18 15:30N 54°58' W 005°01'0 0.0
2017-May-18 15:00N 54°58' W 005°01'0 0.0
2017-May-18 14:30N 54°58' W 005°01'1413.9
2017-May-18 13:30N 54°56' W 005°25'1019.9
2017-May-18 13:00N 54°53' W 005°41'4 8.6
2017-May-18 12:30N 54°51' W 005°48'0 0.0
2017-May-18 12:00N 54°51' W 005°48'1 2.7
2017-May-18 11:30N 54°52' W 005°47'918.8
2017-May-18 11:00N 54°56' W 005°33'1020.1
2017-May-18 10:30N 55°00' W 005°16'815.2
2017-May-18 10:00N 54°59' W 005°03'2 3.8
2017-May-18 09:30N 54°58' W 005°01'0 0.0
2017-May-18 08:58N 54°58' W 005°01'0 0.2
2017-May-18 08:30N 54°58' W 005°01'612.2
2017-May-18 08:01N 55°02' W 005°09'1019.8
2017-May-18 07:30N 54°57' W 005°25'1019.4
2017-May-18 07:00N 54°53' W 005°41'5 9.8
2017-May-18 06:30N 54°51' W 005°48'0 0.0
2017-May-18 06:00N 54°51' W 005°48'0 0.0
2017-May-18 05:30N 54°51' W 005°48'0 0.0
2017-May-18 05:00N 54°51' W 005°48'612.6
2017-May-18 04:30N 54°54' W 005°39'1020.8
2017-May-18 04:01N 54°59' W 005°22'1118.2
2017-May-18 03:26N 55°01' W 005°04'4 8.4
2017-May-18 03:00N 54°58' W 005°01'0 0.0
2017-May-18 02:30N 54°58' W 005°01'0 0.0
2017-May-18 02:00N 54°58' W 005°01'0 0.0
2017-May-18 01:30N 54°58' W 005°01'0 0.0
2017-May-18 01:00N 54°58' W 005°01'510.7
2017-May-18 00:30N 55°02' W 005°08'918.7
2017-May-18 00:00N 54°58' W 005°22'1019.6
2017-May-17 23:30N 54°55' W 005°38'713.5
2017-May-17 23:00N 54°51' W 005°48'0 0.0
2017-May-17 22:30N 54°51' W 005°48'0 0.0
2017-May-17 22:00N 54°51' W 005°48'0 0.0
2017-May-17 21:31N 54°51' W 005°48'0 0.0
2017-May-17 21:00N 54°51' W 005°48'4 8.2
2017-May-17 20:31N 54°53' W 005°42'918.0
2017-May-17 20:00N 54°57' W 005°28'917.3
2017-May-17 19:30N 55°01' W 005°14'714.0
2017-May-17 19:00N 54°59' W 005°03'1 2.9
2017-May-17 18:30N 54°58' W 005°01'0 0.0
2017-May-17 18:00N 54°58' W 005°01'0 0.0
2017-May-17 17:30N 54°58' W 005°01'611.3
2017-May-17 17:01N 55°02' W 005°08'918.6
2017-May-17 16:31N 54°58' W 005°23'918.0
2017-May-17 16:00N 54°54' W 005°37'713.9
2017-May-17 15:30N 54°51' W 005°48'0 0.1
2017-May-17 15:00N 54°51' W 005°48'0 0.0
2017-May-17 14:30N 54°51' W 005°48'1414.4
2017-May-17 13:31N 54°58' W 005°26'917.5
2017-May-17 13:00N 55°01' W 005°12'713.8
2017-May-17 12:30N 54°58' W 005°01'0 0.7
2017-May-17 11:57N 54°58' W 005°01'0 0.0
2017-May-17 11:30N 54°58' W 005°01'510.3
2017-May-17 11:01N 55°02' W 005°07'1019.6
2017-May-17 10:30N 54°58' W 005°23'1020.3
2017-May-17 10:01N 54°54' W 005°39'611.8
2017-May-17 09:30N 54°51' W 005°48'0 0.0
2017-May-17 09:00N 54°51' W 005°48'0 0.0
2017-May-17 08:30N 54°51' W 005°48'612.7
2017-May-17 08:00N 54°54' W 005°39'1019.1
2017-May-17 07:30N 54°58' W 005°24'919.0
2017-May-17 07:00N 55°02' W 005°08'610.6
2017-May-17 06:28N 54°58' W 005°01'0 0.0
2017-May-17 05:58N 54°58' W 005°01'0 0.0
2017-May-17 05:25N 54°58' W 005°01'0 0.0
2017-May-17 05:00N 54°58' W 005°01'510.3
2017-May-17 04:30N 55°02' W 005°07'1019.4
2017-May-17 04:01N 54°58' W 005°23'1019.4
2017-May-17 03:30N 54°54' W 005°38'713.0
2017-May-17 03:00N 54°51' W 005°48'0 0.0
2017-May-17 02:30N 54°51' W 005°48'0 0.0
2017-May-17 02:00N 54°51' W 005°48'0 0.0
2017-May-17 01:31N 54°51' W 005°48'0 0.0
2017-May-17 01:01N 54°51' W 005°48'510.2
2017-May-17 00:31N 54°54' W 005°41'917.5
2017-May-17 00:00N 54°57' W 005°27'917.8
2017-May-16 23:31N 55°01' W 005°13'713.1
2017-May-16 23:00N 54°58' W 005°02'1 1.9
2017-May-16 22:30N 54°58' W 005°01'0 0.0
2017-May-16 22:00N 54°58' W 005°01'0 0.0
2017-May-16 21:30N 54°58' W 005°01'0 0.2
2017-May-16 21:00N 54°58' W 005°01'611.7
2017-May-16 20:30N 55°01' W 005°09'917.1
2017-May-16 20:00N 54°58' W 005°22'917.2
2017-May-16 19:30N 54°55' W 005°36'715.1
2017-May-16 19:00N 54°51' W 005°48'0 0.2
2017-May-16 18:29N 54°51' W 005°48'0 0.0
2017-May-16 17:59N 54°51' W 005°48'0 0.0
2017-May-16 17:30N 54°51' W 005°48'510.7
2017-May-16 17:01N 54°54' W 005°40'917.6
2017-May-16 16:30N 54°58' W 005°26'816.8
2017-May-16 16:00N 55°01' W 005°13'713.5
2017-May-16 15:31N 54°58' W 005°02'1 1.8
2017-May-16 15:00N 54°58' W 005°01'5 5.1
2017-May-16 13:58N 55°02' W 005°07'919.3
2017-May-16 13:30N 54°58' W 005°21'918.9
2017-May-16 13:00N 54°54' W 005°37'714.4
2017-May-16 12:30N 54°51' W 005°48'0 0.1
2017-May-16 12:00N 54°51' W 005°48'0 0.8
2017-May-16 11:30N 54°51' W 005°48'714.9
2017-May-16 11:01N 54°55' W 005°36'816.5
2017-May-16 10:30N 54°58' W 005°23'817.0
2017-May-16 10:01N 55°01' W 005°10'612.3
2017-May-16 09:30N 54°58' W 005°01'0 0.0
2017-May-16 09:01N 54°58' W 005°01'0 0.2
2017-May-16 08:27N 54°58' W 005°01'612.1
2017-May-16 07:56N 55°01' W 005°10'920.0
2017-May-16 07:30N 54°58' W 005°24'1019.5
2017-May-16 07:00N 54°53' W 005°39'611.4
2017-May-16 06:30N 54°51' W 005°48'0 0.0
2017-May-16 06:00N 54°51' W 005°48'0 0.0
2017-May-16 05:31N 54°51' W 005°48'0 0.2
2017-May-16 05:01N 54°51' W 005°48'815.4
2017-May-16 04:30N 54°57' W 005°39'816.6
2017-May-16 04:00N 54°59' W 005°25'918.4
2017-May-16 03:31N 55°02' W 005°10'713.0
2017-May-16 03:00N 54°58' W 005°01'0 0.0
2017-May-16 02:30N 54°58' W 005°01'0 0.0
2017-May-16 02:00N 54°58' W 005°01'0 0.0
2017-May-16 01:30N 54°58' W 005°01'0 0.4
2017-May-16 01:00N 54°58' W 005°01'613.0
2017-May-16 00:30N 55°01' W 005°11'919.0
2017-May-16 00:01N 54°56' W 005°25'918.8
2017-May-15 23:30N 54°53' W 005°41'5 9.3
2017-May-15 23:00N 54°51' W 005°48'0 0.0
2017-May-15 22:30N 54°51' W 005°48'0 0.0
2017-May-15 22:00N 54°51' W 005°48'0 0.0
2017-May-15 21:30N 54°51' W 005°48'0 0.0
2017-May-15 21:00N 54°51' W 005°48'510.9
2017-May-15 20:30N 54°54' W 005°40'816.6
2017-May-15 20:00N 54°57' W 005°27'816.7
2017-May-15 19:30N 55°01' W 005°14'713.8
2017-May-15 19:00N 54°59' W 005°02'1 2.7
2017-May-15 18:30N 54°58' W 005°01'0 0.0
2017-May-15 18:00N 54°58' W 005°01'0 0.1
2017-May-15 17:30N 54°58' W 005°01'611.1
2017-May-15 17:00N 55°02' W 005°08'919.2
2017-May-15 16:30N 54°58' W 005°23'918.2
2017-May-15 16:01N 54°54' W 005°38'713.4
2017-May-15 15:30N 54°51' W 005°48'0 0.1
2017-May-15 15:00N 54°51' W 005°48'5 5.4
2017-May-15 14:01N 54°54' W 005°40'816.9
2017-May-15 13:31N 54°58' W 005°27'816.7
2017-May-15 13:00N 55°01' W 005°13'713.0
2017-May-15 12:30N 54°59' W 005°03'1 3.0
2017-May-15 12:00N 54°58' W 005°01'0 0.0
2017-May-15 11:30N 54°58' W 005°01'610.9
2017-May-15 11:00N 55°02' W 005°08'918.8
2017-May-15 10:30N 54°57' W 005°22'1019.1
2017-May-15 10:00N 54°54' W 005°38'713.2
2017-May-15 09:30N 54°51' W 005°48'0 0.0
2017-May-15 08:58N 54°51' W 005°48'0 0.0
2017-May-15 08:30N 54°51' W 005°48'5 9.8
2017-May-15 08:00N 54°54' W 005°41'1019.5
2017-May-15 07:30N 54°58' W 005°26'1019.8
2017-May-15 07:00N 55°02' W 005°10'612.9
2017-May-15 06:30N 54°58' W 005°01'0 0.0
2017-May-15 05:59N 54°58' W 005°01'0 0.0
2017-May-15 05:31N 54°58' W 005°01'0 0.1
2017-May-15 05:01N 54°58' W 005°01'611.2
2017-May-15 04:31N 55°02' W 005°08'1020.0
2017-May-15 04:01N 54°57' W 005°23'918.3
2017-May-15 03:31N 54°53' W 005°38'612.1
2017-May-15 03:00N 54°51' W 005°48'0 0.1
2017-May-15 02:30N 54°51' W 005°48'0 0.0
2017-May-15 02:00N 54°51' W 005°48'0 0.0
2017-May-15 01:30N 54°51' W 005°48'0 0.0
2017-May-15 01:00N 54°51' W 005°48'0 0.0
2017-May-15 00:30N 54°51' W 005°48'0 0.0
2017-May-15 00:00N 54°51' W 005°48'611.3
2017-May-14 23:30N 54°54' W 005°40'917.1
2017-May-14 23:00N 54°58' W 005°26'917.6
2017-May-14 22:28N 55°01' W 005°11'713.1
2017-May-14 21:57N 54°58' W 005°01'0 0.1
2017-May-14 21:25N 54°58' W 005°01'0 0.4
2017-May-14 21:01N 54°58' W 005°01'611.5
2017-May-14 20:30N 55°02' W 005°09'918.9
2017-May-14 20:00N 54°57' W 005°23'1019.4
2017-May-14 19:30N 54°53' W 005°38'611.6
2017-May-14 19:00N 54°51' W 005°48'0 0.0
2017-May-14 18:30N 54°51' W 005°48'0 0.0
2017-May-14 18:00N 54°51' W 005°48'0 0.0
2017-May-14 17:30N 54°51' W 005°48'611.0
2017-May-14 17:00N 54°54' W 005°40'917.5
2017-May-14 16:30N 54°58' W 005°26'816.6
2017-May-14 16:00N 55°01' W 005°13'713.8
2017-May-14 15:30N 54°58' W 005°02'1 1.5
2017-May-14 15:00N 54°58' W 005°01'0 0.0
2017-May-14 14:30N 54°58' W 005°01'8 7.9
2017-May-14 13:30N 55°01' W 005°14'1121.2
2017-May-14 13:00N 54°56' W 005°30'1020.4
2017-May-14 12:30N 54°52' W 005°47'1 2.9
2017-May-14 12:00N 54°51' W 005°48'0 0.0
2017-May-14 11:30N 54°51' W 005°48'0 0.0
2017-May-14 11:00N 54°51' W 005°48'0 0.0
2017-May-14 10:30N 54°51' W 005°48'0 0.0
2017-May-14 10:00N 54°51' W 005°48'0 0.0
2017-May-14 09:30N 54°51' W 005°48'0 0.0
2017-May-14 09:00N 54°51' W 005°48'0 0.0
2017-May-14 08:30N 54°51' W 005°48'612.1
2017-May-14 08:01N 54°54' W 005°39'917.3
2017-May-14 07:31N 54°58' W 005°26'917.4
2017-May-14 07:00N 55°02' W 005°12'714.1
2017-May-14 06:30N 54°58' W 005°01'0 0.3
2017-May-14 05:57N 54°58' W 005°01'0 0.0
2017-May-14 05:30N 54°58' W 005°01'0 0.0
2017-May-14 05:00N 54°58' W 005°01'0 0.0
2017-May-14 04:30N 54°58' W 005°01'0 0.0
2017-May-14 04:00N 54°58' W 005°01'0 0.0
2017-May-14 03:30N 54°58' W 005°01'0 0.0
2017-May-14 03:00N 54°58' W 005°01'0 0.0
2017-May-14 02:30N 54°58' W 005°01'0 0.0
2017-May-14 02:00N 54°58' W 005°01'0 0.0
2017-May-14 01:30N 54°58' W 005°01'0 0.0
2017-May-14 01:00N 54°58' W 005°01'0 0.0
2017-May-14 00:30N 54°58' W 005°01'  
Track history (hours):
 
Tides and Currents Weather Stations Pressure Air Temp Water Temp Dewpoint Dewpoint Depression Visibility Wind Speed Wind Dir Waves Ship Positions

European Causeway

Operator: P & O Irish Sea

Last reported at 2017-May-24 00:30 UTC. Time now 2017-May-24 00:29 UTC.
Position N 54°54' W 005°40'.

Length 165 m; draft 5.5 m.

Type: Ship (hazmat cat A). MMSI: 311027000.

Date/timePositionNaut miles runAvg speedWind from/ knotsBaromVisibWave heightAir tempDewpointWater temp
2017-May-24 00:30N 54°54' W 005°40'917.8
2017-May-24 00:00N 54°58' W 005°26'917.2
2017-May-23 23:30N 55°01' W 005°12'713.5
2017-May-23 23:00N 54°58' W 005°02'1 1.3
2017-May-23 22:29N 54°58' W 005°01'0 0.0
2017-May-23 22:00N 54°58' W 005°01'0 0.0
2017-May-23 21:30N 54°58' W 005°01'0 0.1
2017-May-23 21:00N 54°58' W 005°01'611.2
2017-May-23 20:30N 55°02' W 005°08'917.6
2017-May-23 20:00N 54°58' W 005°22'918.5
2017-May-23 19:30N 54°54' W 005°37'714.2
2017-May-23 19:00N 54°51' W 005°48'0 0.1
2017-May-23 18:30N 54°51' W 005°48'0 0.0
2017-May-23 18:00N 54°51' W 005°48'0 0.2
2017-May-23 17:30N 54°51' W 005°48'714.5
2017-May-23 17:00N 54°55' W 005°37'917.7
2017-May-23 16:31N 54°58' W 005°23'918.0
2017-May-23 16:00N 55°01' W 005°08'611.2
2017-May-23 15:30N 54°58' W 005°01'0 0.0
2017-May-23 15:00N 54°58' W 005°01'0 0.1
2017-May-23 14:30N 54°58' W 005°01'1212.5
2017-May-23 13:30N 54°57' W 005°23'1019.3
2017-May-23 13:00N 54°53' W 005°38'612.5
2017-May-23 12:31N 54°51' W 005°48'0 0.0
2017-May-23 11:58N 54°51' W 005°48'0 0.0
2017-May-23 11:30N 54°51' W 005°48'713.1
2017-May-23 11:00N 54°54' W 005°38'918.3
2017-May-23 10:30N 54°58' W 005°24'917.3
2017-May-23 10:00N 55°01' W 005°10'612.5
2017-May-23 09:30N 54°58' W 005°01'0 0.0
2017-May-23 09:00N 54°58' W 005°01'0 0.0
2017-May-23 08:30N 54°58' W 005°01'5 9.8
2017-May-23 07:59N 55°02' W 005°07'817.3
2017-May-23 07:31N 54°58' W 005°20'917.9
2017-May-23 07:01N 54°55' W 005°35'816.5
2017-May-23 06:31N 54°52' W 005°48'1 1.4
2017-May-23 05:59N 54°51' W 005°48'0 0.0
2017-May-23 05:29N 54°51' W 005°48'0 0.0
2017-May-23 05:00N 54°51' W 005°48'510.2
2017-May-23 04:30N 54°53' W 005°40'1020.3
2017-May-23 04:00N 54°58' W 005°25'1020.6
2017-May-23 03:30N 55°02' W 005°08'611.2
2017-May-23 03:00N 54°58' W 005°01'0 0.0
2017-May-23 02:30N 54°58' W 005°01'0 0.0
2017-May-23 02:00N 54°58' W 005°01'0 0.0
2017-May-23 01:30N 54°58' W 005°01'0 0.2
2017-May-23 01:00N 54°58' W 005°01'612.0
2017-May-23 00:30N 55°02' W 005°09'1019.0
2017-May-23 00:00N 54°58' W 005°24'918.8
2017-May-22 23:30N 54°54' W 005°39'612.4
2017-May-22 23:01N 54°51' W 005°48'0 0.0
2017-May-22 22:30N 54°51' W 005°48'0 0.0
2017-May-22 22:00N 54°51' W 005°48'0 0.0
2017-May-22 21:31N 54°51' W 005°48'0 0.0
2017-May-22 21:01N 54°51' W 005°48'4 7.8
2017-May-22 20:30N 54°53' W 005°42'816.5
2017-May-22 20:00N 54°57' W 005°29'816.2
2017-May-22 19:30N 55°00' W 005°16'814.0
2017-May-22 18:58N 54°59' W 005°03'2 3.7
2017-May-22 18:23N 54°58' W 005°01'0 0.0
2017-May-22 17:56N 54°58' W 005°01'0 0.1
2017-May-22 17:31N 54°58' W 005°01'510.0
2017-May-22 17:00N 55°02' W 005°07'917.5
2017-May-22 16:30N 54°58' W 005°21'918.2
2017-May-22 16:01N 54°55' W 005°35'816.2
2017-May-22 15:31N 54°51' W 005°48'0 0.2
2017-May-22 15:00N 54°51' W 005°48'6 6.0
2017-May-22 14:00N 54°54' W 005°39'917.8
2017-May-22 13:30N 54°58' W 005°25'917.9
2017-May-22 13:00N 55°02' W 005°11'713.7
2017-May-22 12:30N 54°58' W 005°01'0 0.0
2017-May-22 11:55N 54°58' W 005°01'0 0.2
2017-May-22 11:30N 54°58' W 005°01'611.3
2017-May-22 11:00N 55°02' W 005°08'918.3
2017-May-22 10:30N 54°58' W 005°23'917.1
2017-May-22 10:00N 54°54' W 005°37'714.8
2017-May-22 09:30N 54°51' W 005°48'0 0.2
2017-May-22 09:00N 54°51' W 005°48'0 0.0
2017-May-22 08:30N 54°51' W 005°48'5 9.3
2017-May-22 08:00N 54°54' W 005°41'918.1
2017-May-22 07:30N 54°57' W 005°27'917.9
2017-May-22 07:00N 55°01' W 005°13'713.6
2017-May-22 06:30N 54°58' W 005°02'1 1.4
2017-May-22 06:01N 54°58' W 005°01'0 0.0
2017-May-22 05:31N 54°58' W 005°01'0 0.0
2017-May-22 05:00N 54°58' W 005°01'5 9.6
2017-May-22 04:30N 55°02' W 005°06'918.2
2017-May-22 04:01N 54°58' W 005°20'1020.1
2017-May-22 03:30N 54°54' W 005°37'714.7
2017-May-22 03:00N 54°51' W 005°48'0 0.0
2017-May-22 02:30N 54°51' W 005°48'0 0.0
2017-May-22 02:00N 54°51' W 005°48'0 0.0
2017-May-22 01:30N 54°51' W 005°48'0 0.0
2017-May-22 01:00N 54°51' W 005°48'0 0.0
2017-May-22 00:30N 54°51' W 005°48'0 0.0
2017-May-22 00:00N 54°51' W 005°48'612.4
2017-May-21 23:31N 54°54' W 005°39'1019.8
2017-May-21 23:01N 54°58' W 005°23'817.0
2017-May-21 22:31N 55°02' W 005°10'612.7
2017-May-21 22:00N 54°58' W 005°01'0 0.0
2017-May-21 21:30N 54°58' W 005°01'0 0.0
2017-May-21 21:00N 54°58' W 005°01'5 9.3
2017-May-21 20:29N 55°02' W 005°06'919.7
2017-May-21 20:00N 54°58' W 005°21'1019.4
2017-May-21 19:30N 54°54' W 005°37'714.4
2017-May-21 19:00N 54°51' W 005°48'0 0.0
2017-May-21 18:30N 54°51' W 005°48'0 0.0
2017-May-21 18:00N 54°51' W 005°48'0 0.0
2017-May-21 17:31N 54°51' W 005°48'1515.3
2017-May-21 16:33N 54°58' W 005°26'117.8
2017-May-21 16:29N 54°59' W 005°24'16 3.6
2017-May-21 12:07N 54°51' W 005°48'0 0.1
2017-May-21 11:09N 54°51' W 005°48'0 0.0
2017-May-21 10:59N 54°51' W 005°48'0 0.0
2017-May-21 10:29N 54°51' W 005°48'0 0.0
2017-May-21 09:59N 54°51' W 005°48'0 0.0
2017-May-21 09:25N 54°51' W 005°48'0 0.0
2017-May-21 08:57N 54°51' W 005°48'0 0.1
2017-May-21 08:26N 54°51' W 005°48'21 1.8
2017-May-20 20:23N 54°60' W 005°14'2117.1
2017-May-20 19:08N 54°51' W 005°48'0 0.9
2017-May-20 19:00N 54°51' W 005°48'0 0.0
2017-May-20 18:30N 54°51' W 005°48'0 0.0
2017-May-20 18:00N 54°51' W 005°48'0 0.0
2017-May-20 17:29N 54°51' W 005°48'8 9.6
2017-May-20 16:40N 54°55' W 005°36'1220.3
2017-May-20 16:03N 55°00' W 005°17'9 8.9
2017-May-20 15:00N 54°58' W 005°01'0 0.0
2017-May-20 14:30N 54°58' W 005°01'1212.1
2017-May-20 13:31N 54°57' W 005°22'1019.3
2017-May-20 13:01N 54°53' W 005°37'713.3
2017-May-20 12:30N 54°51' W 005°48'0 0.0
2017-May-20 12:00N 54°51' W 005°48'0 0.0
2017-May-20 11:30N 54°51' W 005°48'715.0
2017-May-20 11:01N 54°55' W 005°37'1020.3
2017-May-20 10:31N 54°59' W 005°21'1016.2
2017-May-20 09:54N 54°60' W 005°04'2 6.0
2017-May-20 09:30N 54°58' W 005°01'0 0.0
2017-May-20 08:58N 54°58' W 005°01'0 0.0
2017-May-20 08:30N 54°58' W 005°01'5 9.9
2017-May-20 08:00N 55°02' W 005°07'917.8
2017-May-20 07:30N 54°59' W 005°21'917.6
2017-May-20 07:00N 54°55' W 005°35'816.4
2017-May-20 06:30N 54°51' W 005°48'0 0.7
2017-May-20 06:00N 54°51' W 005°48'0 0.0
2017-May-20 05:30N 54°51' W 005°48'0 0.0
2017-May-20 05:00N 54°51' W 005°48'713.7
2017-May-20 04:30N 54°54' W 005°37'1020.6
2017-May-20 04:00N 54°59' W 005°21'1116.1
2017-May-20 03:21N 54°59' W 005°03'2 5.6
2017-May-20 03:00N 54°58' W 005°01'0 0.0
2017-May-20 02:30N 54°58' W 005°01'0 0.0
2017-May-20 02:00N 54°58' W 005°01'5 8.6
2017-May-20 01:23N 55°02' W 005°05'411.2
2017-May-20 01:01N 55°05' W 005°12'3 5.7
2017-May-20 00:30N 55°02' W 005°14'714.0
2017-May-20 00:00N 54°58' W 005°24'917.7
2017-May-19 23:30N 54°54' W 005°38'713.1
2017-May-19 23:00N 54°51' W 005°48'0 0.1
2017-May-19 22:30N 54°51' W 005°48'0 0.0
2017-May-19 22:00N 54°51' W 005°48'0 0.0
2017-May-19 21:30N 54°51' W 005°48'0 0.0
2017-May-19 21:00N 54°51' W 005°48'4 8.7
2017-May-19 20:31N 54°53' W 005°42'918.4
2017-May-19 20:00N 54°57' W 005°27'918.1
2017-May-19 19:31N 55°01' W 005°13'714.4
2017-May-19 19:00N 54°58' W 005°02'0 0.9
2017-May-19 18:29N 54°58' W 005°01'0 0.0
2017-May-19 17:59N 54°58' W 005°01'0 0.0
2017-May-19 17:30N 54°58' W 005°01'510.3
2017-May-19 17:00N 55°02' W 005°07'1020.1
2017-May-19 16:31N 54°57' W 005°22'1020.1
2017-May-19 16:00N 54°53' W 005°39'611.6
2017-May-19 15:30N 54°51' W 005°48'0 0.0
2017-May-19 14:57N 54°51' W 005°48'6 6.3
2017-May-19 14:00N 54°54' W 005°39'1020.2
2017-May-19 13:30N 54°58' W 005°23'1019.5
2017-May-19 13:00N 55°01' W 005°07'510.1
2017-May-19 12:30N 54°58' W 005°01'0 0.0
2017-May-19 12:00N 54°58' W 005°01'0 0.0
2017-May-19 11:30N 54°58' W 005°01'5 9.5
2017-May-19 11:00N 55°01' W 005°06'1019.9
2017-May-19 10:31N 54°57' W 005°22'1020.1
2017-May-19 10:01N 54°55' W 005°38'713.2
2017-May-19 09:30N 54°51' W 005°48'0 0.0
2017-May-19 08:59N 54°51' W 005°48'0 0.0
2017-May-19 08:30N 54°51' W 005°48'612.4
2017-May-19 08:01N 54°54' W 005°39'918.8
2017-May-19 07:31N 54°58' W 005°24'917.5
2017-May-19 07:01N 55°02' W 005°10'712.8
2017-May-19 06:30N 54°58' W 005°01'0 0.0
2017-May-19 06:00N 54°58' W 005°01'0 0.0
2017-May-19 05:30N 54°58' W 005°01'0 0.0
2017-May-19 05:00N 54°58' W 005°01'611.5
2017-May-19 04:31N 55°02' W 005°08'917.3
2017-May-19 04:00N 54°58' W 005°22'918.0
2017-May-19 03:30N 54°54' W 005°36'715.0
2017-May-19 03:00N 54°51' W 005°48'0 0.1
2017-May-19 02:30N 54°51' W 005°48'0 0.0
2017-May-19 02:00N 54°51' W 005°48'0 0.0
2017-May-19 01:30N 54°51' W 005°48'0 0.0
2017-May-19 01:00N 54°51' W 005°48'510.7
2017-May-19 00:31N 54°54' W 005°40'1019.9
2017-May-19 00:01N 54°58' W 005°25'1019.5
2017-May-18 23:31N 55°02' W 005°09'612.0
2017-May-18 23:00N 54°58' W 005°01'0 0.0
2017-May-18 22:30N 54°58' W 005°01'0 0.0
2017-May-18 22:00N 54°58' W 005°01'0 0.0
2017-May-18 21:30N 54°58' W 005°01'0 0.1
2017-May-18 21:00N 54°58' W 005°01'611.1
2017-May-18 20:30N 55°02' W 005°08'918.4
2017-May-18 20:00N 54°57' W 005°22'917.6
2017-May-18 19:30N 54°54' W 005°36'714.4
2017-May-18 19:00N 54°51' W 005°48'0 0.2
2017-May-18 18:30N 54°51' W 005°48'0 0.0
2017-May-18 18:00N 54°51' W 005°48'0 0.0
2017-May-18 17:30N 54°51' W 005°48'713.1
2017-May-18 17:01N 54°54' W 005°38'1020.0
2017-May-18 16:30N 54°59' W 005°23'1019.3
2017-May-18 16:00N 55°02' W 005°06'510.0
2017-May-18 15:30N 54°58' W 005°01'0 0.0
2017-May-18 15:00N 54°58' W 005°01'0 0.0
2017-May-18 14:30N 54°58' W 005°01'1413.9
2017-May-18 13:30N 54°56' W 005°25'1019.9
2017-May-18 13:00N 54°53' W 005°41'4 8.6
2017-May-18 12:30N 54°51' W 005°48'0 0.0
2017-May-18 12:00N 54°51' W 005°48'1 2.7
2017-May-18 11:30N 54°52' W 005°47'918.8
2017-May-18 11:00N 54°56' W 005°33'1020.1
2017-May-18 10:30N 55°00' W 005°16'815.2
2017-May-18 10:00N 54°59' W 005°03'2 3.8
2017-May-18 09:30N 54°58' W 005°01'0 0.0
2017-May-18 08:58N 54°58' W 005°01'0 0.2
2017-May-18 08:30N 54°58' W 005°01'612.2
2017-May-18 08:01N 55°02' W 005°09'1019.8
2017-May-18 07:30N 54°57' W 005°25'1019.4
2017-May-18 07:00N 54°53' W 005°41'5 9.8
2017-May-18 06:30N 54°51' W 005°48'0 0.0
2017-May-18 06:00N 54°51' W 005°48'0 0.0
2017-May-18 05:30N 54°51' W 005°48'0 0.0
2017-May-18 05:00N 54°51' W 005°48'612.6
2017-May-18 04:30N 54°54' W 005°39'1020.8
2017-May-18 04:01N 54°59' W 005°22'1118.2
2017-May-18 03:26N 55°01' W 005°04'4 8.4
2017-May-18 03:00N 54°58' W 005°01'0 0.0
2017-May-18 02:30N 54°58' W 005°01'0 0.0
2017-May-18 02:00N 54°58' W 005°01'0 0.0
2017-May-18 01:30N 54°58' W 005°01'0 0.0
2017-May-18 01:00N 54°58' W 005°01'510.7
2017-May-18 00:30N 55°02' W 005°08'918.7
2017-May-18 00:00N 54°58' W 005°22'1019.6
2017-May-17 23:30N 54°55' W 005°38'713.5
2017-May-17 23:00N 54°51' W 005°48'0 0.0
2017-May-17 22:30N 54°51' W 005°48'0 0.0
2017-May-17 22:00N 54°51' W 005°48'0 0.0
2017-May-17 21:31N 54°51' W 005°48'0 0.0
2017-May-17 21:00N 54°51' W 005°48'4 8.2
2017-May-17 20:31N 54°53' W 005°42'918.0
2017-May-17 20:00N 54°57' W 005°28'917.3
2017-May-17 19:30N 55°01' W 005°14'714.0
2017-May-17 19:00N 54°59' W 005°03'1 2.9
2017-May-17 18:30N 54°58' W 005°01'0 0.0
2017-May-17 18:00N 54°58' W 005°01'0 0.0
2017-May-17 17:30N 54°58' W 005°01'611.3
2017-May-17 17:01N 55°02' W 005°08'918.6
2017-May-17 16:31N 54°58' W 005°23'918.0
2017-May-17 16:00N 54°54' W 005°37'713.9
2017-May-17 15:30N 54°51' W 005°48'0 0.1
2017-May-17 15:00N 54°51' W 005°48'0 0.0
2017-May-17 14:30N 54°51' W 005°48'1414.4
2017-May-17 13:31N 54°58' W 005°26'917.5
2017-May-17 13:00N 55°01' W 005°12'713.8
2017-May-17 12:30N 54°58' W 005°01'0 0.7
2017-May-17 11:57N 54°58' W 005°01'0 0.0
2017-May-17 11:30N 54°58' W 005°01'510.3
2017-May-17 11:01N 55°02' W 005°07'1019.6
2017-May-17 10:30N 54°58' W 005°23'1020.3
2017-May-17 10:01N 54°54' W 005°39'611.8
2017-May-17 09:30N 54°51' W 005°48'0 0.0
2017-May-17 09:00N 54°51' W 005°48'0 0.0
2017-May-17 08:30N 54°51' W 005°48'612.7
2017-May-17 08:00N 54°54' W 005°39'1019.1
2017-May-17 07:30N 54°58' W 005°24'919.0
2017-May-17 07:00N 55°02' W 005°08'610.6
2017-May-17 06:28N 54°58' W 005°01'0 0.0
2017-May-17 05:58N 54°58' W 005°01'0 0.0
2017-May-17 05:25N 54°58' W 005°01'0 0.0
2017-May-17 05:00N 54°58' W 005°01'510.3
2017-May-17 04:30N 55°02' W 005°07'1019.4
2017-May-17 04:01N 54°58' W 005°23'1019.4
2017-May-17 03:30N 54°54' W 005°38'713.0
2017-May-17 03:00N 54°51' W 005°48'0 0.0
2017-May-17 02:30N 54°51' W 005°48'0 0.0
2017-May-17 02:00N 54°51' W 005°48'0 0.0
2017-May-17 01:31N 54°51' W 005°48'0 0.0
2017-May-17 01:01N 54°51' W 005°48'510.2
2017-May-17 00:31N 54°54' W 005°41'917.5
2017-May-17 00:00N 54°57' W 005°27'917.8
2017-May-16 23:31N 55°01' W 005°13'713.1
2017-May-16 23:00N 54°58' W 005°02'1 1.9
2017-May-16 22:30N 54°58' W 005°01'0 0.0
2017-May-16 22:00N 54°58' W 005°01'0 0.0
2017-May-16 21:30N 54°58' W 005°01'0 0.2
2017-May-16 21:00N 54°58' W 005°01'611.7
2017-May-16 20:30N 55°01' W 005°09'917.1
2017-May-16 20:00N 54°58' W 005°22'917.2
2017-May-16 19:30N 54°55' W 005°36'715.1
2017-May-16 19:00N 54°51' W 005°48'0 0.2
2017-May-16 18:29N 54°51' W 005°48'0 0.0
2017-May-16 17:59N 54°51' W 005°48'0 0.0
2017-May-16 17:30N 54°51' W 005°48'510.7
2017-May-16 17:01N 54°54' W 005°40'917.6
2017-May-16 16:30N 54°58' W 005°26'816.8
2017-May-16 16:00N 55°01' W 005°13'713.5
2017-May-16 15:31N 54°58' W 005°02'1 1.8
2017-May-16 15:00N 54°58' W 005°01'5 5.1
2017-May-16 13:58N 55°02' W 005°07'919.3
2017-May-16 13:30N 54°58' W 005°21'918.9
2017-May-16 13:00N 54°54' W 005°37'714.4
2017-May-16 12:30N 54°51' W 005°48'0 0.1
2017-May-16 12:00N 54°51' W 005°48'0 0.8
2017-May-16 11:30N 54°51' W 005°48'714.9
2017-May-16 11:01N 54°55' W 005°36'816.5
2017-May-16 10:30N 54°58' W 005°23'817.0
2017-May-16 10:01N 55°01' W 005°10'612.3
2017-May-16 09:30N 54°58' W 005°01'0 0.0
2017-May-16 09:01N 54°58' W 005°01'0 0.2
2017-May-16 08:27N 54°58' W 005°01'612.1
2017-May-16 07:56N 55°01' W 005°10'920.0
2017-May-16 07:30N 54°58' W 005°24'1019.5
2017-May-16 07:00N 54°53' W 005°39'611.4
2017-May-16 06:30N 54°51' W 005°48'0 0.0
2017-May-16 06:00N 54°51' W 005°48'0 0.0
2017-May-16 05:31N 54°51' W 005°48'0 0.2
2017-May-16 05:01N 54°51' W 005°48'815.4
2017-May-16 04:30N 54°57' W 005°39'816.6
2017-May-16 04:00N 54°59' W 005°25'918.4
2017-May-16 03:31N 55°02' W 005°10'713.0
2017-May-16 03:00N 54°58' W 005°01'0 0.0
2017-May-16 02:30N 54°58' W 005°01'0 0.0
2017-May-16 02:00N 54°58' W 005°01'0 0.0
2017-May-16 01:30N 54°58' W 005°01'0 0.4
2017-May-16 01:00N 54°58' W 005°01'613.0
2017-May-16 00:30N 55°01' W 005°11'919.0
2017-May-16 00:01N 54°56' W 005°25'918.8
2017-May-15 23:30N 54°53' W 005°41'5 9.3
2017-May-15 23:00N 54°51' W 005°48'0 0.0
2017-May-15 22:30N 54°51' W 005°48'0 0.0
2017-May-15 22:00N 54°51' W 005°48'0 0.0
2017-May-15 21:30N 54°51' W 005°48'0 0.0
2017-May-15 21:00N 54°51' W 005°48'510.9
2017-May-15 20:30N 54°54' W 005°40'816.6
2017-May-15 20:00N 54°57' W 005°27'816.7
2017-May-15 19:30N 55°01' W 005°14'713.8
2017-May-15 19:00N 54°59' W 005°02'1 2.7
2017-May-15 18:30N 54°58' W 005°01'0 0.0
2017-May-15 18:00N 54°58' W 005°01'0 0.1
2017-May-15 17:30N 54°58' W 005°01'611.1
2017-May-15 17:00N 55°02' W 005°08'919.2
2017-May-15 16:30N 54°58' W 005°23'918.2
2017-May-15 16:01N 54°54' W 005°38'713.4
2017-May-15 15:30N 54°51' W 005°48'0 0.1
2017-May-15 15:00N 54°51' W 005°48'5 5.4
2017-May-15 14:01N 54°54' W 005°40'816.9
2017-May-15 13:31N 54°58' W 005°27'816.7
2017-May-15 13:00N 55°01' W 005°13'713.0
2017-May-15 12:30N 54°59' W 005°03'1 3.0
2017-May-15 12:00N 54°58' W 005°01'0 0.0
2017-May-15 11:30N 54°58' W 005°01'610.9
2017-May-15 11:00N 55°02' W 005°08'918.8
2017-May-15 10:30N 54°57' W 005°22'1019.1
2017-May-15 10:00N 54°54' W 005°38'713.2
2017-May-15 09:30N 54°51' W 005°48'0 0.0
2017-May-15 08:58N 54°51' W 005°48'0 0.0
2017-May-15 08:30N 54°51' W 005°48'5 9.8
2017-May-15 08:00N 54°54' W 005°41'1019.5
2017-May-15 07:30N 54°58' W 005°26'1019.8
2017-May-15 07:00N 55°02' W 005°10'612.9
2017-May-15 06:30N 54°58' W 005°01'0 0.0
2017-May-15 05:59N 54°58' W 005°01'0 0.0
2017-May-15 05:31N 54°58' W 005°01'0 0.1
2017-May-15 05:01N 54°58' W 005°01'611.2
2017-May-15 04:31N 55°02' W 005°08'1020.0
2017-May-15 04:01N 54°57' W 005°23'918.3
2017-May-15 03:31N 54°53' W 005°38'612.1
2017-May-15 03:00N 54°51' W 005°48'0 0.1
2017-May-15 02:30N 54°51' W 005°48'0 0.0
2017-May-15 02:00N 54°51' W 005°48'0 0.0
2017-May-15 01:30N 54°51' W 005°48'0 0.0
2017-May-15 01:00N 54°51' W 005°48'0 0.0
2017-May-15 00:30N 54°51' W 005°48'0 0.0
2017-May-15 00:00N 54°51' W 005°48'611.3
2017-May-14 23:30N 54°54' W 005°40'917.1
2017-May-14 23:00N 54°58' W 005°26'917.6
2017-May-14 22:28N 55°01' W 005°11'713.1
2017-May-14 21:57N 54°58' W 005°01'0 0.1
2017-May-14 21:25N 54°58' W 005°01'0 0.4
2017-May-14 21:01N 54°58' W 005°01'611.5
2017-May-14 20:30N 55°02' W 005°09'918.9
2017-May-14 20:00N 54°57' W 005°23'1019.4
2017-May-14 19:30N 54°53' W 005°38'611.6
2017-May-14 19:00N 54°51' W 005°48'0 0.0
2017-May-14 18:30N 54°51' W 005°48'0 0.0
2017-May-14 18:00N 54°51' W 005°48'0 0.0
2017-May-14 17:30N 54°51' W 005°48'611.0
2017-May-14 17:00N 54°54' W 005°40'917.5
2017-May-14 16:30N 54°58' W 005°26'816.6
2017-May-14 16:00N 55°01' W 005°13'713.8
2017-May-14 15:30N 54°58' W 005°02'1 1.5
2017-May-14 15:00N 54°58' W 005°01'0 0.0
2017-May-14 14:30N 54°58' W 005°01'8 7.9
2017-May-14 13:30N 55°01' W 005°14'1121.2
2017-May-14 13:00N 54°56' W 005°30'1020.4
2017-May-14 12:30N 54°52' W 005°47'1 2.9
2017-May-14 12:00N 54°51' W 005°48'0 0.0
2017-May-14 11:30N 54°51' W 005°48'0 0.0
2017-May-14 11:00N 54°51' W 005°48'0 0.0
2017-May-14 10:30N 54°51' W 005°48'0 0.0
2017-May-14 10:00N 54°51' W 005°48'0 0.0
2017-May-14 09:30N 54°51' W 005°48'0 0.0
2017-May-14 09:00N 54°51' W 005°48'0 0.0
2017-May-14 08:30N 54°51' W 005°48'612.1
2017-May-14 08:01N 54°54' W 005°39'917.3
2017-May-14 07:31N 54°58' W 005°26'917.4
2017-May-14 07:00N 55°02' W 005°12'714.1
2017-May-14 06:30N 54°58' W 005°01'0 0.3
2017-May-14 05:57N 54°58' W 005°01'0 0.0
2017-May-14 05:30N 54°58' W 005°01'0 0.0
2017-May-14 05:00N 54°58' W 005°01'0 0.0
2017-May-14 04:30N 54°58' W 005°01'0 0.0
2017-May-14 04:00N 54°58' W 005°01'0 0.0
2017-May-14 03:30N 54°58' W 005°01'0 0.0
2017-May-14 03:00N 54°58' W 005°01'0 0.0
2017-May-14 02:30N 54°58' W 005°01'0 0.0
2017-May-14 02:00N 54°58' W 005°01'0 0.0
2017-May-14 01:30N 54°58' W 005°01'0 0.0
2017-May-14 01:00N 54°58' W 005°01'0 0.0
2017-May-14 00:30N 54°58' W 005°01'  

Dump ship's entire track history